Stations météo

réclame
Mon MeteoGroup
Palacios de la Sierra, Espagne (8149): Température de l'air & dewpoint: 17.10.2017 04:00:00 - 23.10.2017 04:00:00 (CEST)Palacios de la Sierra, Espagne (8149): Vitesse du vent & gusts: 17.10.2017 04:00:00 - 23.10.2017 04:00:00 (CEST)Palacios de la Sierra, Espagne (8149): Direction du vent: 17.10.2017 04:00:00 - 23.10.2017 04:00:00 (CEST)Palacios de la Sierra, Espagne (8149): visibility: 17.10.2017 04:00:00 - 23.10.2017 04:00:00 (CEST)Palacios de la Sierra, Espagne (8149): Ensoleillement: 17.10.2017 04:00:00 - 23.10.2017 04:00:00 (CEST)Palacios de la Sierra, Espagne (8149): Quantités de précipitations: 17.10.2017 04:00:00 - 23.10.2017 04:00:00 (CEST)
Date & Time tt [°C] td [°C] ff [km/h] ff [knt] fx [km/h] fx [knt] dd vv [km] sd [min] rr [mm]
23.10.2017 04:00:00 0,7 -0,3 3 1 15 8 SE 20 0 0,0
23.10.2017 03:00:00 0,6 -0,7 2 1 11 6 SE 20 0 0,0
23.10.2017 02:00:00 1,9 0,6 3 2 16 9 ESE 20 0 -
23.10.2017 01:00:00 2,2 0,6 1 1 10 5 SSE 20 0 0,0
23.10.2017 00:00:00 3,3 1,3 2 1 10 5 SSE 20 0 0,0
22.10.2017 23:00:00 4,6 2,1 2 1 14 8 SE 20 0 0,0
22.10.2017 22:00:00 7,6 3,0 7 4 16 8 S 20 0 0,0
22.10.2017 21:00:00 8,1 3,4 10 5 16 9 S 20 0 0,0
22.10.2017 20:00:00 9,2 3,6 10 6 17 9 S 20 0 -
22.10.2017 19:00:00 12,0 2,5 10 5 15 8 WSW 20 31 0,0
22.10.2017 18:00:00 15,2 2,1 8 4 16 8 W 20 60 0,0
22.10.2017 17:00:00 15,5 1,7 4 2 14 8 SW 20 60 0,0
22.10.2017 16:00:00 14,2 2,1 4 2 13 7 NNW 3,2 60 0,0
22.10.2017 15:00:00 14,2 2,5 3 1 13 7 WSW 20 60 0,0
22.10.2017 14:00:00 13,3 2,9 4 2 13 7 NE 20 60 -
22.10.2017 13:00:00 12,0 2,5 4 2 10 5 E 20 60 0,0
22.10.2017 12:00:00 9,0 4,3 3 2 8 4 SSW 20 60 0,0
22.10.2017 11:00:00 5,0 2,7 1 1 4 2 S 20 60 0,0
22.10.2017 10:00:00 0,7 -0,5 1 1 9 5 WSW 20 53 0,0
22.10.2017 09:00:00 -0,4 -1,4 3 2 11 6 E 16 8 0,0
22.10.2017 08:00:00 -0,6 -1,7 2 1 14 7 WSW 20 0 -
22.10.2017 07:00:00 0,0 -1,0 4 2 10 5 ESE 20 0 0,0
22.10.2017 06:00:00 0,3 -0,7 4 2 10 6 SSE 20 0 0,0
22.10.2017 05:00:00 0,5 -0,5 5 3 10 5 SSE 20 0 0,0
22.10.2017 04:00:00 1,0 -0,3 5 3 13 7 SSE 20 0 0,0
22.10.2017 03:00:00 1,5 0,4 8 5 15 8 SSE 20 0 0,0
22.10.2017 02:00:00 2,0 0,9 4 2 10 5 SSE 20 0 -
22.10.2017 01:00:00 2,8 1,3 6 3 15 8 SE 20 0 0,0
22.10.2017 00:00:00 3,3 1,7 5 3 14 7 SE 20 0 0,0
21.10.2017 23:00:00 4,4 2,5 5 3 15 8 S 20 0 0,0
21.10.2017 22:00:00 5,2 2,5 5 3 12 6 SE 20 0 0,0
21.10.2017 21:00:00 6,7 2,7 0 0 5 3 N 20 0 0,0
21.10.2017 20:00:00 9,4 1,3 3 1 16 8 SW 20 0 -
21.10.2017 19:00:00 11,6 2,3 8 4 29 16 W 20 24 0,0
21.10.2017 18:00:00 13,2 2,7 14 8 29 16 WNW 20 58 0,0
21.10.2017 17:00:00 13,9 4,5 11 6 31 17 WNW 20 51 0,0
21.10.2017 16:00:00 13,1 7,1 12 6 30 16 WNW 20 22 0,0
21.10.2017 15:00:00 12,2 9,4 16 9 39 21 W 20 4 0,0
21.10.2017 14:00:00 14,1 11,4 16 9 39 21 WNW 20 1 -
21.10.2017 13:00:00 13,9 12,3 13 7 26 14 W 20 0 0,4
21.10.2017 12:00:00 13,9 11,6 12 6 25 14 W 20 0 0,2
21.10.2017 11:00:00 13,2 11,1 10 6 22 12 WSW 3,2 0 0,0
21.10.2017 10:00:00 13,1 11,1 9 5 16 9 WNW 18 0 0,0
21.10.2017 09:00:00 12,9 10,6 6 3 21 12 WSW 20 0 0,0
21.10.2017 08:00:00 11,9 10,2 5 3 14 7 W 20 0 -
21.10.2017 07:00:00 11,7 10,3 4 2 10 6 W 20 0 0,0
21.10.2017 06:00:00 12,3 10,5 3 2 16 9 SW 20 0 0,0
21.10.2017 05:00:00 13,4 11,2 10 5 15 8 WSW 20 0 0,0
21.10.2017 04:00:00 13,7 11,8 6 3 17 9 WSW 20 0 0,0
21.10.2017 03:00:00 14,1 11,6 12 7 26 14 WSW 20 0 0,0
21.10.2017 02:00:00 13,6 11,4 10 5 21 11 W 20 0 -
21.10.2017 01:00:00 10,6 8,9 1 1 8 5 WNW 20 0 0,0
21.10.2017 00:00:00 10,5 8,7 2 1 4 2 ESE 20 0 0,0
20.10.2017 23:00:00 10,7 8,7 3 2 10 5 E 20 0 0,0
20.10.2017 22:00:00 10,6 8,0 3 2 9 5 SE 20 0 0,0
20.10.2017 21:00:00 9,9 7,3 1 1 8 5 ENE 20 0 0,0
20.10.2017 20:00:00 12,2 8,1 8 4 12 7 S 20 0 -
20.10.2017 19:00:00 15,1 7,6 8 4 18 10 WSW 20 34 0,0
20.10.2017 18:00:00 17,2 7,0 10 5 22 12 W 20 59 0,0
20.10.2017 17:00:00 17,3 7,0 10 6 25 14 W 20 58 0,0
20.10.2017 16:00:00 17,1 8,0 9 5 56 30 W 20 48 0,0
20.10.2017 15:00:00 16,4 7,6 9 5 23 13 W 20 28 0,0
20.10.2017 14:00:00 14,1 7,4 10 6 28 15 W 20 3 -
20.10.2017 13:00:00 13,8 8,8 11 6 24 13 WSW 20 10 0,0
20.10.2017 12:00:00 12,6 9,6 10 6 24 13 WNW 20 3 0,0
20.10.2017 11:00:00 11,0 9,6 7 4 13 7 WNW 7 0 0,0
20.10.2017 10:00:00 10,0 8,9 3 2 11 6 S 10 0 0,0
20.10.2017 09:00:00 9,2 8,1 1 1 4 2 SW 3,1 0 0,0
20.10.2017 08:00:00 9,1 8,0 1 1 8 4 ENE 1,7 0 -
20.10.2017 07:00:00 9,0 7,7 5 3 9 5 S 4,2 0 0,0
20.10.2017 06:00:00 9,2 7,7 1 1 4 2 SSW 4,0 0 0,0
20.10.2017 05:00:00 9,1 7,4 3 1 7 4 WNW 8 0 0,0
20.10.2017 04:00:00 9,3 6,8 3 2 6 3 WSW 20 0 0,0
20.10.2017 03:00:00 9,0 7,0 4 2 11 6 WNW 20 0 0,0
20.10.2017 02:00:00 8,8 6,7 5 3 9 5 WSW 20 0 -
20.10.2017 01:00:00 8,0 6,2 3 2 5 3 W 20 0 0,0
20.10.2017 00:00:00 7,8 5,9 2 1 5 3 SSW 20 0 0,0
19.10.2017 23:00:00 7,5 5,6 3 1 9 5 W 20 0 0,0
19.10.2017 22:00:00 7,8 5,1 8 4 10 5 S 20 0 0,0
19.10.2017 21:00:00 7,2 5,0 0 0 7 4 N 20 0 0,0
19.10.2017 20:00:00 8,3 4,6 2 1 19 10 NNE 20 0 -
19.10.2017 19:00:00 10,1 4,8 10 5 16 9 WSW 20 2 0,0
19.10.2017 18:00:00 11,2 5,3 7 4 14 7 NW 20 13 0,0
19.10.2017 17:00:00 11,4 4,8 8 5 21 11 WNW 20 55 0,0
19.10.2017 16:00:00 10,3 5,6 8 5 32 17 NW 20 8 0,0
19.10.2017 15:00:00 9,7 5,5 15 8 31 17 W 20 23 0,0
19.10.2017 14:00:00 10,9 6,1 14 8 22 12 W 20 30 -
19.10.2017 13:00:00 10,2 6,5 5 3 20 11 NW 20 32 0,0
19.10.2017 12:00:00 7,7 5,8 11 6 26 14 W 17 0 0,0
19.10.2017 11:00:00 7,5 5,8 9 5 20 11 W 13 3 0,0
19.10.2017 10:00:00 7,2 5,9 2 1 7 4 W 14 11 0,0
19.10.2017 09:00:00 6,4 5,3 3 1 6 3 SW 8 0 0,0
19.10.2017 08:00:00 6,1 5,0 2 1 4 2 NNE 4,1 0 -
19.10.2017 07:00:00 6,4 5,3 1 1 5 3 W 0,8 0 0,2
19.10.2017 06:00:00 6,4 5,3 2 1 6 3 SSW 20 0 2,0
19.10.2017 05:00:00 6,3 5,3 1 1 6 3 NNE 3,5 0 2,2
19.10.2017 04:00:00 6,3 5,1 1 1 4 2 E 13 0 0,8
19.10.2017 03:00:00 6,2 5,0 2 1 5 3 E 8 0 0,4
19.10.2017 02:00:00 6,3 5,1 1 1 9 5 NE 20 0 -
19.10.2017 01:00:00 6,3 5,1 5 3 8 5 ENE 12 0 2,2
19.10.2017 00:00:00 6,6 5,3 1 1 8 4 SSE 20 0 0,6
18.10.2017 23:00:00 6,6 5,5 3 1 8 4 E 20 0 2,0
18.10.2017 22:00:00 6,8 5,6 3 2 8 4 SSE 20 0 2,2
18.10.2017 21:00:00 6,8 5,5 3 1 7 4 S 18 0 3,0
18.10.2017 20:00:00 6,7 5,1 1 1 18 10 SW 15 0 -
18.10.2017 19:00:00 7,7 4,8 10 6 24 13 WNW 13 0 4,2
18.10.2017 18:00:00 9,9 7,7 2 1 8 4 S 14 0 0,4
18.10.2017 17:00:00 10,2 7,1 5 3 18 10 WNW 20 0 0,0
18.10.2017 16:00:00 9,9 7,3 10 5 23 13 W 20 0 0,0
18.10.2017 15:00:00 9,2 7,3 12 6 - - W 17 0 0,4
18.10.2017 14:00:00 9,9 7,6 5 3 11 6 S 20 0 -
18.10.2017 13:00:00 9,1 7,3 1 1 16 9 N 20 0 0,8
18.10.2017 12:00:00 8,3 7,0 12 6 29 16 WNW 20 0 1,8
18.10.2017 11:00:00 7,8 6,2 20 11 36 20 WNW 10 0 3,4
18.10.2017 10:00:00 10,0 8,9 3 2 8 5 NE 3,7 0 8,0
18.10.2017 09:00:00 10,0 8,9 4 2 9 5 SSE 8 0 0,4
18.10.2017 08:00:00 9,8 8,8 3 2 10 5 SE 5 0 -
18.10.2017 07:00:00 9,7 8,5 6 4 9 5 S 0,4 0 0,0
18.10.2017 06:00:00 10,5 9,0 6 3 12 6 SE 9 0 0,4
18.10.2017 05:00:00 10,6 9,3 2 1 8 4 S 13 0 0,4
18.10.2017 04:00:00 10,5 8,8 3 1 9 5 SSE 14 0 0,0
18.10.2017 03:00:00 10,3 8,5 5 3 7 4 S 18 0 0,0
18.10.2017 02:00:00 11,1 9,0 3 2 7 4 SE 18 0 -
18.10.2017 01:00:00 11,3 9,0 4 2 11 6 SE 20 0 0,0
18.10.2017 00:00:00 11,3 9,2 4 2 10 5 S 20 0 0,0
17.10.2017 23:00:00 11,8 9,7 5 3 10 5 SSE 20 0 0,2
17.10.2017 22:00:00 12,2 9,8 3 2 10 5 S 20 0 0,4
17.10.2017 21:00:00 12,8 9,3 3 2 22 12 SSE 20 0 0,0
17.10.2017 20:00:00 14,2 8,1 6 3 18 10 SE 20 0 -
17.10.2017 19:00:00 14,8 8,1 8 4 17 9 ESE 20 0 0,0
17.10.2017 18:00:00 15,1 8,4 3 2 25 14 S 20 0 0,0
17.10.2017 17:00:00 15,5 8,7 8 4 26 14 SE 20 0 0,0
17.10.2017 16:00:00 16,3 8,3 9 5 51 27 SSE 20 5 0,0
17.10.2017 15:00:00 17,8 7,3 14 8 39 21 SE 20 8 0,0
17.10.2017 14:00:00 17,2 7,3 14 7 29 16 SE 20 4 -
17.10.2017 13:00:00 16,9 6,7 10 5 22 12 SE 20 9 0,0
17.10.2017 12:00:00 15,3 6,5 12 6 29 16 SE 20 32 0,0
17.10.2017 11:00:00 14,7 6,2 10 5 19 10 ESE 20 50 0,0
17.10.2017 10:00:00 13,9 6,1 11 6 16 9 ESE 20 60 0,0
17.10.2017 09:00:00 11,2 5,3 12 6 21 11 E 20 8 0,0
17.10.2017 08:00:00 11,3 5,1 13 7 20 11 ESE 20 0 -
17.10.2017 07:00:00 11,0 4,8 4 2 21 11 ESE 20 0 0,0
17.10.2017 06:00:00 12,0 5,1 10 5 20 11 ESE 20 0 0,0
17.10.2017 05:00:00 12,2 5,3 13 7 19 11 E 20 0 0,0
17.10.2017 04:00:00 11,9 5,3 9 5 16 9 ESE 20 0 0,0

tt = Température de l'air
td = dewpoint
ff = Vitesse du vent
fx = gusts
dd = Direction du vent
vv = visibility
sd = Ensoleillement
rr = Quantités de précipitations

stations d'obs. à proximité